Hierro Island, Spain
Current Conditions -  °F | °C
As of 9:00 PM on Wednesday 22 Oct 2014 (Local Time) from GCLA Reporting Station
Clear Clear  
Wind Chill: 77°   Ceiling: Unl
Heat Index: 79°   Visibility: 6mi
Dew Point: 68°   Wind: 13mph
Humidity: 74%   Direction: 360°N
Pressure: 30.12"   Gusts: NA
Location:  27.82°N, 17.88°W
Report Text: GCLA 222000Z 36011KT 320V030 CAVOK 25/20 Q1020
Loading
Personal Weather Stations






























Interactive Weather Map
Tropical Storm Tracking
New forecast layout! Learn more

10-Day Weather Forecast

Advertisements
Track Severe Weather on mobile